Time;durP1;ratioP1;P1;durP2;ratioP2;P2;SDS_P1;SDS_P2;PMS_P1;PMS_P2;Temp;Humidity;BMP_temperature;BMP_pressure;BME280_temperature;BME280_humidity;BME280_pressure;Samples;Min_cycle;Max_cycle;Signal;HPM_P1;HPM_P2
2023/02/19 00:01:42;;;;;;;2.50;1.20;;;;;;;2.79;78.77;97827.52;105642;1261;76085;-25
2023/02/19 00:04:13;;;;;;;3.00;1.70;;;;;;;2.55;79.88;97827.60;105294;1258;74358;-25
2023/02/19 00:06:40;;;;;;;4.20;0.90;;;;;;;2.34;80.78;97827.95;105525;1264;61120;-24
2023/02/19 00:09:12;;;;;;;2.40;1.70;;;;;;;2.36;81.32;97833.46;105548;1261;61912;-25
2023/02/19 00:11:39;;;;;;;4.20;1.70;;;;;;;2.72;80.06;97834.85;105188;1257;75539;-25
2023/02/19 00:14:07;;;;;;;2.50;1.60;;;;;;;2.78;79.19;97839.57;105564;1257;76110;-25
2023/02/19 00:16:36;;;;;;;4.50;2.10;;;;;;;2.58;79.60;97842.26;105650;1257;74198;-25
2023/02/19 00:19:08;;;;;;;1.70;1.20;;;;;;;2.34;80.26;97841.50;105594;1256;61120;-24
2023/02/19 00:21:35;;;;;;;2.30;1.50;;;;;;;2.07;81.48;97848.41;105591;1260;61949;-25
2023/02/19 00:24:04;;;;;;;3.00;1.60;;;;;;;2.03;82.17;97848.99;105575;1259;75346;-25
2023/02/19 00:26:32;;;;;;;3.30;2.00;;;;;;;2.43;80.67;97852.70;105206;1257;75230;-24
2023/02/19 00:28:59;;;;;;;1.40;1.10;;;;;;;2.49;79.87;97859.18;105566;1260;74515;-25
2023/02/19 00:31:31;;;;;;;2.40;1.40;;;;;;;2.35;80.22;97860.21;105384;1256;61994;-25
2023/02/19 00:34:00;;;;;;;;;;;;;;;2.20;80.81;97860.75;105651;1259;61688;-25
2023/02/19 00:36:28;;;;;;;4.60;1.80;;;;;;;1.97;81.47;97862.73;105752;1260;75646;-25
2023/02/19 00:38:55;;;;;;;1.80;1.10;;;;;;;1.79;82.48;97861.30;105977;1252;75840;-25
2023/02/19 00:41:23;;;;;;;5.50;1.90;;;;;;;2.15;81.63;97853.65;105900;1254;74467;-25
2023/02/19 00:43:51;;;;;;;4.70;1.70;;;;;;;2.31;80.55;97851.23;105818;1257;61435;-26
2023/02/19 00:46:22;;;;;;;2.20;1.20;;;;;;;2.37;79.86;97848.98;105671;1258;61153;-24
2023/02/19 00:48:51;;;;;;;2.90;1.70;;;;;;;2.19;80.22;97848.61;105871;1251;76208;-25
2023/02/19 00:51:19;;;;;;;1.20;0.80;;;;;;;1.96;81.00;97852.19;105697;1251;75916;-25
2023/02/19 00:53:51;;;;;;;3.70;1.30;;;;;;;1.77;82.06;97860.75;105749;1257;74206;-25
2023/02/19 00:56:19;;;;;;;6.70;1.10;;;;;;;2.12;81.10;97866.02;105652;1251;61093;-24
2023/02/19 00:58:46;;;;;;;2.20;1.60;;;;;;;2.21;80.36;97868.55;105935;1251;61720;-25
2023/02/19 01:01:14;;;;;;;1.80;1.40;;;;;;;2.22;80.28;97866.93;106006;1251;74178;-26
2023/02/19 01:03:41;;;;;;;2.60;1.40;;;;;;;1.96;80.98;97889.16;105988;1251;76081;-25
2023/02/19 01:06:10;;;;;;;2.50;1.30;;;;;;;1.78;81.84;97892.32;106038;1257;74057;-25
2023/02/19 01:08:37;;;;;;;6.90;1.50;;;;;;;1.69;82.49;97892.58;105601;1257;62864;-25
2023/02/19 01:11:10;;;;;;;5.20;1.80;;;;;;;2.01;81.79;97894.80;105661;1257;62137;-24
2023/02/19 01:13:39;;;;;;;2.70;1.70;;;;;;;2.16;80.93;97884.61;105926;1251;75205;-24
2023/02/19 01:16:18;;;;;;;4.10;2.60;;;;;;;2.03;80.89;97880.82;105928;1251;75871;-25
2023/02/19 01:18:46;;;;;;;2.70;1.80;;;;;;;1.77;81.95;97880.41;105658;1259;73418;-25
2023/02/19 01:21:16;;;;;;;2.00;1.50;;;;;;;1.55;82.75;97878.59;105858;1251;61413;-25
2023/02/19 01:23:43;;;;;;;3.60;1.30;;;;;;;1.60;83.02;97881.52;105735;1251;61040;-25
2023/02/19 01:26:12;;;;;;;1.70;1.30;;;;;;;1.92;81.58;97890.76;105992;1255;75317;-25
2023/02/19 01:28:39;;;;;;;3.20;1.30;;;;;;;2.03;80.59;97897.77;105750;1251;75317;-25
2023/02/19 01:38:19;;;;;;;2.70;1.70;;;;;;;1.27;83.46;97915.86;102690;1292;600359;-26
2023/02/19 01:40:55;;;;;;;2.90;1.40;;;;;;;1.66;82.67;97925.27;105076;1264;61038;-26
2023/02/19 01:43:24;;;;;;;3.10;1.70;;;;;;;1.89;80.86;97920.77;104838;1266;62110;-25
2023/02/19 01:45:53;;;;;;;5.70;1.80;;;;;;;1.77;80.55;97916.71;104891;1265;73776;-26
2023/02/19 01:48:31;;;;;;;3.80;1.90;;;;;;;1.58;81.11;97912.96;104889;1266;75859;-26
2023/02/19 01:51:11;;;;;;;5.40;2.00;;;;;;;1.24;82.44;97910.91;103456;1270;1924526;-26
2023/02/19 01:53:46;;;;;;;1.60;1.30;;;;;;;0.98;83.66;97921.20;104874;1270;63186;-26
2023/02/19 01:56:14;;;;;;;3.80;2.00;;;;;;;1.34;82.98;97922.64;104801;1263;61438;-26
2023/02/19 01:58:42;;;;;;;5.00;1.90;;;;;;;1.68;81.40;97927.90;104917;1263;74042;-26
2023/02/19 02:01:13;;;;;;;3.30;1.20;;;;;;;1.55;81.10;97932.41;105202;1267;73603;-26
2023/02/19 02:03:43;;;;;;;4.20;2.00;;;;;;;1.38;81.51;97931.80;105146;1263;73118;-26
2023/02/19 02:06:27;;;;;;;5.10;2.20;;;;;;;1.07;82.94;97930.95;105061;1263;61301;-26
2023/02/19 02:11:50;;;;;;;2.40;1.20;;;;;;;1.12;83.60;97932.30;105159;1263;74531;-26
2023/02/19 02:14:21;;;;;;;4.20;1.70;;;;;;;1.45;81.92;97922.80;105064;1263;76174;-26
2023/02/19 02:17:15;;;;;;;3.20;1.30;;;;;;;1.45;81.52;97920.95;104894;1263;73276;-26
2023/02/19 02:19:55;;;;;;;3.90;1.80;;;;;;;1.17;82.55;97922.98;105103;1263;61060;-26
2023/02/19 02:22:46;;;;;;;5.50;2.00;;;;;;;0.98;83.01;97922.93;105101;1263;61184;-26
2023/02/19 02:25:40;;;;;;;3.90;1.90;;;;;;;0.81;84.18;97926.17;105084;1263;73432;-26
2023/02/19 02:28:11;;;;;;;2.90;1.50;;;;;;;1.21;82.93;97942.70;105198;1262;75622;-26
2023/02/19 02:31:00;;;;;;;7.50;2.20;;;;;;;1.24;82.11;97955.70;105225;1263;73085;-26
2023/02/19 02:34:25;;;;;;;2.90;1.90;;;;;;;1.02;82.79;97953.80;104878;1263;61090;-26
2023/02/19 02:36:54;;;;;;;3.50;2.10;;;;;;;0.77;83.88;97950.98;104723;1274;62205;-26
2023/02/19 02:39:24;;;;;;;2.20;1.00;;;;;;;0.64;85.04;97961.29;105211;1265;73687;-26
2023/02/19 02:47:45;;;;;;;2.20;1.70;;;;;;;1.16;82.13;97955.70;105156;1265;62186;-26
2023/02/19 02:50:24;;;;;;;3.50;2.10;;;;;;;1.02;82.25;97954.46;104872;1263;61055;-26
2023/02/19 02:55:46;;;;;;;2.30;1.40;;;;;;;0.72;84.46;97953.45;105790;1258;75740;-26
2023/02/19 02:58:16;;;;;;;3.20;2.00;;;;;;;1.25;82.45;97954.27;105717;1253;73065;-26
2023/02/19 03:03:35;;;;;;;4.00;1.90;;;;;;;1.15;81.65;97954.89;105842;1253;60992;-26
2023/02/19 03:06:04;;;;;;;2.70;1.60;;;;;;;0.90;82.49;97952.61;105576;1252;74619;-26
2023/02/19 03:08:39;;;;;;;6.00;2.30;;;;;;;0.71;83.59;97961.91;105693;1253;75333;-27
2023/02/19 03:20:23;;;;;;;3.80;1.90;;;;;;;1.13;82.80;97977.20;105900;1253;74675;-26
2023/02/19 03:22:52;;;;;;;2.30;1.40;;;;;;;0.98;83.50;97982.20;105761;1254;75723;-26
2023/02/19 03:28:16;;;;;;;5.00;2.30;;;;;;;1.51;82.96;97986.61;105652;1253;61132;-26
2023/02/19 03:30:48;;;;;;;4.90;1.70;;;;;;;1.74;81.60;97988.28;105620;1251;61082;-26
2023/02/19 03:33:21;;;;;;;3.60;2.30;;;;;;;1.62;81.56;97982.67;105713;1253;74484;-26
2023/02/19 03:35:59;;;;;;;6.60;2.10;;;;;;;1.40;82.34;97982.25;105642;1253;76352;-26
2023/02/19 03:38:31;;;;;;;2.50;1.80;;;;;;;1.19;83.41;97980.77;105614;1253;74247;-26
2023/02/19 03:41:10;;;;;;;3.80;2.00;;;;;;;1.39;83.44;97996.23;105670;1259;61390;-26
2023/02/19 03:43:49;;;;;;;3.30;1.70;;;;;;;1.71;81.99;97993.06;105663;1257;62090;-25
2023/02/19 03:46:22;;;;;;;4.60;2.50;;;;;;;1.68;81.73;97995.13;105548;1253;74561;-26
2023/02/19 03:48:56;;;;;;;4.60;1.80;;;;;;;1.50;82.44;97993.50;105593;1258;75295;-26
2023/02/19 03:51:38;;;;;;;4.30;2.40;;;;;;;1.41;82.91;97992.68;105428;1253;74098;-26
2023/02/19 03:54:33;;;;;;;2.50;1.80;;;;;;;1.36;83.15;97996.58;105687;1252;62430;-26
2023/02/19 03:57:34;;;;;;;9.70;2.10;;;;;;;1.85;81.86;97998.52;105703;1253;61300;-26
2023/02/19 04:00:08;;;;;;;6.60;2.50;;;;;;;1.83;81.21;97999.83;105937;1253;74570;-26
2023/02/19 04:02:58;;;;;;;4.70;2.50;;;;;;;1.69;81.45;98003.98;105784;1258;74997;-26
2023/02/19 04:05:32;;;;;;;3.70;2.40;;;;;;;1.41;82.64;97999.50;105909;1253;73868;-26
2023/02/19 04:08:05;;;;;;;2.40;1.60;;;;;;;1.49;82.80;98007.90;105650;1260;62032;-26
2023/02/19 04:10:36;;;;;;;4.30;2.00;;;;;;;1.83;81.33;98012.35;105797;1258;61132;-26
2023/02/19 04:13:45;;;;;;;4.10;2.20;;;;;;;1.79;80.76;98016.34;105666;1253;74547;-26
2023/02/19 04:16:19;;;;;;;3.30;1.90;;;;;;;1.56;81.27;98017.73;105702;1253;75232;-26
2023/02/19 04:18:51;;;;;;;5.20;2.00;;;;;;;1.21;82.12;98018.27;105773;1253;74515;-26
2023/02/19 04:21:20;;;;;;;5.30;2.60;;;;;;;1.01;83.10;98017.42;105439;1261;61456;-26
2023/02/19 04:23:49;;;;;;;3.40;1.50;;;;;;;1.24;82.77;98015.41;105665;1258;61561;-25
2023/02/19 04:26:17;;;;;;;5.60;2.00;;;;;;;1.56;81.31;98017.73;105547;1253;74012;-26
2023/02/19 04:28:46;;;;;;;9.50;2.10;;;;;;;1.47;80.90;98007.84;105368;1253;74978;-25
2023/02/19 04:31:14;;;;;;;4.60;2.40;;;;;;;1.29;81.12;98010.10;105494;1253;74196;-25
2023/02/19 04:33:43;;;;;;;3.40;2.50;;;;;;;1.08;82.11;98011.91;105548;1253;61104;-27
2023/02/19 04:36:11;;;;;;;2.20;1.50;;;;;;;0.82;83.29;98019.38;105597;1257;61828;-26
2023/02/19 04:38:40;;;;;;;6.60;2.20;;;;;;;1.11;82.71;98024.50;105763;1253;74284;-25
2023/02/19 04:41:12;;;;;;;4.00;1.80;;;;;;;1.41;81.29;98033.19;105593;1256;76159;-26
2023/02/19 04:43:41;;;;;;;3.70;1.90;;;;;;;1.39;80.79;98036.42;105504;1253;74949;-25
2023/02/19 04:46:10;;;;;;;4.30;2.30;;;;;;;1.21;81.14;98034.67;105561;1253;61124;-26
2023/02/19 04:48:38;;;;;;;3.70;2.00;;;;;;;0.96;81.81;98039.22;105557;1254;61591;-26
2023/02/19 04:51:07;;;;;;;1.90;1.30;;;;;;;0.80;82.66;98050.73;105623;1254;74605;-25
2023/02/19 04:53:38;;;;;;;3.50;2.10;;;;;;;1.06;82.49;98056.95;105756;1253;76175;-25
2023/02/19 04:56:08;;;;;;;4.90;2.40;;;;;;;1.48;80.75;98056.02;105784;1253;74544;-25
2023/02/19 04:58:37;;;;;;;4.80;2.10;;;;;;;1.55;80.20;98066.89;105589;1257;61163;-25
2023/02/19 05:01:06;;;;;;;4.20;2.10;;;;;;;1.43;80.25;98063.35;105558;1252;62219;-26
2023/02/19 05:03:34;;;;;;;7.00;2.10;;;;;;;1.25;80.80;98062.70;105641;1256;74660;-25
2023/02/19 05:06:05;;;;;;;3.70;1.60;;;;;;;1.11;81.86;98069.68;105547;1259;75213;-26
2023/02/19 05:08:34;;;;;;;5.50;2.30;;;;;;;1.34;81.59;98065.55;105312;1253;74644;-25
2023/02/19 05:11:04;;;;;;;3.30;2.10;;;;;;;1.74;79.84;98063.06;105794;1256;62322;-25
2023/02/19 05:13:37;;;;;;;5.20;2.50;;;;;;;1.87;79.04;98068.05;105550;1257;61855;-26
2023/02/19 05:16:08;;;;;;;4.70;2.60;;;;;;;1.61;79.70;98064.98;105581;1258;74814;-26
2023/02/19 05:18:36;;;;;;;4.40;2.50;;;;;;;1.49;80.42;98066.78;105560;1257;75063;-25
2023/02/19 05:21:05;;;;;;;4.10;2.60;;;;;;;1.25;81.24;98070.05;105546;1253;74133;-25
2023/02/19 05:23:33;;;;;;;3.60;2.50;;;;;;;1.26;81.91;98067.61;105573;1254;61773;-25
2023/02/19 05:26:06;;;;;;;7.70;2.60;;;;;;;1.72;80.20;98064.04;105563;1256;61645;-26
2023/02/19 05:28:35;;;;;;;2.50;1.80;;;;;;;1.85;79.40;98066.82;105554;1258;74648;-26
2023/02/19 05:31:05;;;;;;;4.10;2.80;;;;;;;1.68;79.46;98060.15;105567;1253;76121;-26
2023/02/19 05:33:34;;;;;;;3.80;2.50;;;;;;;1.39;80.54;98058.95;105545;1253;74451;-25
2023/02/19 05:36:08;;;;;;;3.50;2.10;;;;;;;1.22;81.59;98063.23;105766;1253;61353;-26
2023/02/19 05:38:39;;;;;;;4.70;2.50;;;;;;;1.34;81.69;98059.46;105741;1259;61957;-25
2023/02/19 05:41:18;;;;;;;7.50;2.10;;;;;;;1.69;80.34;98046.41;105636;1259;74654;-26
2023/02/19 05:43:47;;;;;;;7.00;2.30;;;;;;;1.69;79.58;98048.79;105627;1253;75257;-25
2023/02/19 05:46:18;;;;;;;7.50;2.50;;;;;;;1.51;80.05;98041.16;105655;1259;74303;-25
2023/02/19 05:48:47;;;;;;;11.80;3.00;;;;;;;1.25;80.67;98049.70;105599;1261;61107;-26
2023/02/19 05:51:18;;;;;;;6.90;2.80;;;;;;;1.01;81.63;98050.75;105700;1252;61768;-26
2023/02/19 05:53:47;;;;;;;3.70;1.90;;;;;;;1.09;82.27;98054.75;105722;1259;74824;-25
2023/02/19 05:56:23;;;;;;;7.90;3.30;;;;;;;1.52;80.51;98059.39;105785;1254;75623;-25
2023/02/19 05:58:51;;;;;;;3.40;2.30;;;;;;;1.53;79.84;98061.38;105530;1254;72934;-25
2023/02/19 06:01:20;;;;;;;7.30;2.80;;;;;;;1.29;80.51;98061.42;105592;1252;61287;-26
2023/02/19 06:03:49;;;;;;;6.00;3.10;;;;;;;1.13;81.39;98066.98;105535;1259;61809;-25
2023/02/19 06:06:17;;;;;;;5.70;3.00;;;;;;;1.00;81.91;98072.00;105563;1254;74433;-25
2023/02/19 06:08:49;;;;;;;8.20;3.50;;;;;;;1.07;82.36;98071.61;105543;1258;76143;-25
2023/02/19 06:11:17;;;;;;;4.70;2.70;;;;;;;1.60;81.00;98080.84;105406;1253;74453;-25
2023/02/19 06:13:49;;;;;;;4.40;3.00;;;;;;;1.79;79.67;98079.84;105569;1256;61448;-26
2023/02/19 06:16:17;;;;;;;4.30;2.80;;;;;;;1.75;79.80;98090.02;105552;1254;61259;-25
2023/02/19 06:18:46;;;;;;;8.00;2.60;;;;;;;1.67;80.32;98090.86;105554;1253;75399;-26
2023/02/19 06:21:15;;;;;;;5.90;2.90;;;;;;;1.54;80.65;98091.27;105568;1259;75815;-25
2023/02/19 06:23:44;;;;;;;4.40;2.70;;;;;;;1.39;81.34;98086.69;105390;1254;74317;-25
2023/02/19 06:26:18;;;;;;;4.00;2.60;;;;;;;1.78;80.71;98085.73;105778;1253;61057;-27
2023/02/19 06:28:47;;;;;;;3.70;2.70;;;;;;;2.11;78.95;98090.92;105387;1260;61827;-26
2023/02/19 06:31:16;;;;;;;10.70;2.80;;;;;;;2.11;78.39;98087.65;105612;1254;74014;-25
2023/02/19 06:33:44;;;;;;;2.30;1.70;;;;;;;1.98;78.82;98088.15;105848;1259;75346;-25
2023/02/19 06:36:15;;;;;;;4.80;2.80;;;;;;;1.85;79.24;98091.80;105764;1253;74303;-25
2023/02/19 06:38:43;;;;;;;8.20;2.70;;;;;;;1.75;79.51;98093.78;105383;1254;61072;-27
2023/02/19 06:41:19;;;;;;;4.20;2.30;;;;;;;1.90;79.13;98095.79;105687;1259;62085;-26
2023/02/19 06:43:47;;;;;;;5.50;3.00;;;;;;;2.33;77.47;98094.15;105809;1253;75449;-26
2023/02/19 06:46:15;;;;;;;4.00;2.10;;;;;;;2.37;76.69;98080.38;105733;1259;76137;-25
2023/02/19 06:48:44;;;;;;;5.30;2.50;;;;;;;2.31;76.70;98088.29;105520;1253;74501;-26
2023/02/19 06:51:14;;;;;;;3.30;2.50;;;;;;;2.12;76.95;98090.67;105507;1258;61170;-26
2023/02/19 06:53:43;;;;;;;8.60;2.70;;;;;;;1.98;77.52;98088.44;105313;1260;61545;-26
2023/02/19 06:56:29;;;;;;;4.20;2.00;;;;;;;1.84;77.77;98090.48;105937;1253;75341;-25
2023/02/19 06:58:59;;;;;;;7.40;2.50;;;;;;;2.20;76.38;98099.60;105808;1259;74581;-25
2023/02/19 07:01:29;;;;;;;5.70;2.10;;;;;;;2.51;74.45;98091.67;105520;1258;72565;-25
2023/02/19 07:03:57;;;;;;;4.00;2.30;;;;;;;2.53;74.27;98093.28;105623;1257;61979;-25
2023/02/19 07:06:27;;;;;;;5.40;2.40;;;;;;;2.32;73.78;98078.34;105695;1255;62134;-26
2023/02/19 07:08:59;;;;;;;4.50;2.20;;;;;;;2.17;74.24;98095.33;105789;1253;75238;-26
2023/02/19 07:11:29;;;;;;;4.00;1.80;;;;;;;2.06;74.20;98083.04;105671;1259;74998;-25
2023/02/19 07:13:59;;;;;;;4.70;2.70;;;;;;;1.93;74.24;98084.66;105730;1258;74227;-25
2023/02/19 07:16:27;;;;;;;3.10;1.70;;;;;;;1.83;74.89;98082.83;105459;1257;61110;-26
2023/02/19 07:18:56;;;;;;;4.20;1.70;;;;;;;2.28;74.12;98082.19;105644;1257;61079;-25
2023/02/19 07:21:30;;;;;;;2.90;1.60;;;;;;;2.71;72.62;98078.59;105463;1257;75473;-25
2023/02/19 07:24:00;;;;;;;6.20;2.00;;;;;;;2.80;71.72;98081.59;105507;1254;75517;-25
2023/02/19 07:26:33;;;;;;;3.20;1.90;;;;;;;2.69;72.02;98071.89;105521;1257;74301;-25
2023/02/19 07:29:01;;;;;;;6.50;2.80;;;;;;;2.57;73.21;98083.63;105551;1253;61066;-26
2023/02/19 07:31:30;;;;;;;3.80;2.10;;;;;;;2.47;74.55;98081.32;105553;1256;61850;-25
2023/02/19 07:33:59;;;;;;;5.10;2.40;;;;;;;2.34;75.41;98078.36;105595;1253;75498;-25
2023/02/19 07:36:27;;;;;;;4.40;2.70;;;;;;;2.37;75.61;98074.55;105535;1259;76222;-25
2023/02/19 07:38:57;;;;;;;5.20;2.50;;;;;;;2.80;74.71;98078.75;105599;1256;74154;-25
2023/02/19 07:41:26;;;;;;;4.40;2.50;;;;;;;3.03;73.74;98086.45;105569;1253;62525;-26
2023/02/19 07:43:56;;;;;;;4.90;2.90;;;;;;;2.86;73.89;98077.09;105898;1255;61300;-25
2023/02/19 07:46:25;;;;;;;4.50;2.80;;;;;;;2.76;74.12;98081.67;105799;1253;75397;-26
2023/02/19 07:48:58;;;;;;;5.30;2.90;;;;;;;2.68;74.43;98080.02;105582;1256;75882;-26
2023/02/19 07:51:28;;;;;;;3.90;2.40;;;;;;;2.55;74.43;98073.45;105508;1257;73157;-26
2023/02/19 07:54:00;;;;;;;8.40;2.90;;;;;;;2.38;74.16;98057.05;105681;1253;61135;-26
2023/02/19 07:56:29;;;;;;;5.30;3.10;;;;;;;2.62;73.99;98068.00;105910;1256;62166;-25
2023/02/19 07:58:59;;;;;;;4.80;2.40;;;;;;;2.77;73.52;98078.05;105742;1256;75693;-25
2023/02/19 08:04:15;;;;;;;5.30;3.10;;;;;;;2.71;72.60;98071.77;105603;1254;73262;-26
2023/02/19 08:06:43;;;;;;;5.50;3.60;;;;;;;2.59;72.17;98062.38;105744;1251;61144;-26
2023/02/19 08:09:12;;;;;;;3.80;2.10;;;;;;;2.44;73.88;98080.15;105631;1257;61164;-25
2023/02/19 08:14:28;;;;;;;3.90;2.50;;;;;;;2.70;72.52;98085.70;105805;1259;74902;-25
2023/02/19 08:16:56;;;;;;;6.40;3.00;;;;;;;2.98;70.54;98082.02;105960;1256;74418;-26
2023/02/19 08:19:25;;;;;;;3.20;2.40;;;;;;;2.96;70.16;98078.37;105756;1253;62053;-25
2023/02/19 08:21:54;;;;;;;6.00;2.80;;;;;;;2.85;69.02;98077.66;105583;1256;61811;-25
2023/02/19 08:24:27;;;;;;;;;;;;;;;2.71;68.90;98076.55;105596;1255;75220;-26
2023/02/19 08:26:56;;;;;;;3.50;2.30;;;;;;;2.64;68.91;98074.08;105576;1256;75851;-25
2023/02/19 08:29:24;;;;;;;3.80;2.20;;;;;;;2.52;68.45;98074.13;105599;1256;74084;-26
2023/02/19 08:31:53;;;;;;;7.90;2.40;;;;;;;2.37;67.81;98068.06;105521;1258;61136;-25
2023/02/19 08:34:21;;;;;;;3.20;1.70;;;;;;;2.21;67.01;98074.02;105540;1259;61856;-25
2023/02/19 08:36:51;;;;;;;4.20;1.90;;;;;;;2.26;67.74;98076.50;105578;1254;75577;-25
2023/02/19 08:39:20;;;;;;;4.20;1.20;;;;;;;2.31;68.71;98080.43;105621;1255;75689;-25
2023/02/19 08:41:50;;;;;;;3.80;1.90;;;;;;;2.35;66.98;98068.71;105580;1256;74190;-26
2023/02/19 08:44:18;;;;;;;3.60;1.40;;;;;;;2.34;67.35;98068.44;105678;1257;61129;-25
2023/02/19 08:46:47;;;;;;;3.20;2.00;;;;;;;2.31;67.22;98082.84;105939;1257;61944;-25
2023/02/19 08:49:16;;;;;;;5.20;1.50;;;;;;;2.16;66.77;98079.64;105851;1256;75257;-25
2023/02/19 08:51:44;;;;;;;3.90;1.80;;;;;;;2.20;65.29;98072.36;105611;1256;76061;-26
2023/02/19 08:54:12;;;;;;;4.20;1.60;;;;;;;2.16;63.52;98065.61;105654;1257;74393;-26
2023/02/19 08:56:41;;;;;;;4.30;1.50;;;;;;;2.23;64.42;98076.16;105550;1256;61097;-25
2023/02/19 08:59:09;;;;;;;4.20;1.40;;;;;;;2.23;63.88;98066.69;105630;1254;61955;-25
2023/02/19 09:01:38;;;;;;;3.50;1.50;;;;;;;2.27;64.21;98072.11;105638;1255;75391;-25
2023/02/19 09:04:09;;;;;;;5.30;1.60;;;;;;;2.31;63.51;98075.79;105488;1259;76267;-25
2023/02/19 09:06:39;;;;;;;2.50;1.20;;;;;;;2.32;64.48;98069.06;105413;1256;74163;-26
2023/02/19 09:09:11;;;;;;;5.10;1.90;;;;;;;2.31;64.17;98067.05;105627;1256;61040;-25
2023/02/19 09:11:40;;;;;;;6.70;1.40;;;;;;;2.14;64.04;98057.17;105702;1257;62159;-27
2023/02/19 09:14:10;;;;;;;3.40;1.60;;;;;;;2.10;64.66;98057.77;105619;1256;75557;-24
2023/02/19 09:16:39;;;;;;;3.30;1.50;;;;;;;2.26;65.64;98066.39;105561;1256;76285;-24
2023/02/19 09:19:07;;;;;;;2.60;1.20;;;;;;;2.26;64.51;98053.36;105542;1256;72135;-24
2023/02/19 09:21:35;;;;;;;4.60;1.80;;;;;;;2.24;64.26;98062.21;105644;1256;61107;-25
2023/02/19 09:24:05;;;;;;;4.30;1.60;;;;;;;2.09;65.53;98053.57;105810;1264;61834;-25
2023/02/19 09:26:34;;;;;;;3.10;1.60;;;;;;;2.11;66.29;98053.62;105694;1259;75355;-25
2023/02/19 09:29:05;;;;;;;4.00;1.80;;;;;;;2.01;66.42;98046.85;105920;1257;76176;-25
2023/02/19 09:31:34;;;;;;;2.70;1.60;;;;;;;2.00;66.81;98044.35;105678;1257;74620;-25
2023/02/19 09:34:02;;;;;;;4.10;1.50;;;;;;;2.05;67.42;98046.91;105604;1251;61045;-25
2023/02/19 09:36:32;;;;;;;3.70;1.70;;;;;;;2.15;67.88;98051.61;105380;1260;61712;-26
2023/02/19 09:39:01;;;;;;;4.30;1.70;;;;;;;2.52;66.66;98042.79;105614;1255;75340;-25
2023/02/19 09:41:38;;;;;;;2.80;1.30;;;;;;;2.90;64.56;98038.46;105572;1264;75596;-25
2023/02/19 09:44:08;;;;;;;2.40;1.70;;;;;;;2.99;64.78;98047.32;105741;1260;74223;-27
2023/02/19 09:46:50;;;;;;;3.60;1.60;;;;;;;2.72;63.89;98039.60;105782;1257;61172;-25
2023/02/19 09:49:28;;;;;;;3.00;1.80;;;;;;;2.59;64.66;98044.61;105603;1257;61529;-25
2023/02/19 09:52:00;;;;;;;5.60;1.60;;;;;;;2.61;65.15;98042.77;105689;1259;74619;-25
2023/02/19 09:54:29;;;;;;;3.30;1.60;;;;;;;2.53;64.21;98035.16;105529;1256;74864;-24
2023/02/19 09:57:00;;;;;;;3.30;1.60;;;;;;;2.45;65.25;98038.23;105496;1268;74669;-25
2023/02/19 09:59:32;;;;;;;3.20;1.30;;;;;;;2.44;64.19;98033.73;105533;1262;61185;-24
2023/02/19 10:02:10;;;;;;;5.30;1.60;;;;;;;2.50;63.54;98031.63;105421;1258;61813;-25
2023/02/19 10:04:40;;;;;;;2.80;1.40;;;;;;;2.54;63.93;98025.34;105635;1258;75332;-25
2023/02/19 10:07:19;;;;;;;4.90;1.40;;;;;;;2.58;65.65;98033.51;105686;1256;75961;-25
2023/02/19 10:10:00;;;;;;;3.70;1.40;;;;;;;2.60;64.76;98019.34;105604;1259;74125;-24
2023/02/19 10:12:30;;;;;;;2.40;1.10;;;;;;;2.31;63.15;97993.56;105456;1256;61130;-26
2023/02/19 10:15:04;;;;;;;1.60;1.20;;;;;;;2.28;64.20;98001.35;105496;1259;61827;-25
2023/02/19 10:17:36;;;;;;;3.40;1.50;;;;;;;2.24;64.62;97989.05;105544;1254;75402;-25
2023/02/19 10:20:05;;;;;;;4.10;1.70;;;;;;;2.22;64.23;97979.80;105928;1255;76167;-24
2023/02/19 10:22:36;;;;;;;2.80;1.10;;;;;;;2.33;62.77;97963.34;105622;1257;74277;-24
2023/02/19 10:25:05;;;;;;;3.40;1.20;;;;;;;2.42;62.48;97953.81;105545;1257;61394;-25
2023/02/19 10:27:33;;;;;;;4.10;1.30;;;;;;;2.49;62.57;97953.68;105855;1257;61723;-25
2023/02/19 10:30:02;;;;;;;3.20;0.90;;;;;;;2.52;62.19;97950.91;105805;1253;75350;-25
2023/02/19 10:32:31;;;;;;;4.00;1.40;;;;;;;2.54;62.27;97960.60;105843;1264;76126;-24
2023/02/19 10:35:13;;;;;;;1.50;0.60;;;;;;;2.54;63.30;97959.05;105650;1255;74176;-25
2023/02/19 10:37:49;;;;;;;2.20;1.30;;;;;;;2.59;62.46;97955.52;105287;1257;61078;-24
2023/02/19 10:40:24;;;;;;;2.80;1.20;;;;;;;2.69;63.63;97958.41;105561;1254;61771;-25
2023/02/19 10:42:56;;;;;;;1.80;1.10;;;;;;;2.76;63.64;97963.27;105671;1254;75352;-25
2023/02/19 10:45:38;;;;;;;4.20;1.70;;;;;;;2.82;62.83;97959.74;105614;1257;75251;-25
2023/02/19 10:48:06;;;;;;;5.30;1.60;;;;;;;2.65;62.48;97950.96;105517;1258;74203;-24
2023/02/19 10:50:46;;;;;;;2.40;1.30;;;;;;;2.58;62.95;97951.59;105554;1257;61164;-25
2023/02/19 10:53:24;;;;;;;2.50;0.90;;;;;;;2.56;63.48;97955.34;105430;1257;61795;-25
2023/02/19 10:56:13;;;;;;;2.80;1.40;;;;;;;2.57;64.56;97951.88;105545;1259;75675;-25
2023/02/19 10:58:43;;;;;;;3.60;1.80;;;;;;;2.56;65.03;97951.41;105599;1254;74812;-24
2023/02/19 11:01:18;;;;;;;5.00;1.10;;;;;;;2.60;65.23;97942.04;105592;1254;74237;-24
2023/02/19 11:03:51;;;;;;;2.10;1.10;;;;;;;2.70;65.04;97928.67;105528;1257;61696;-25
2023/02/19 11:06:24;;;;;;;5.20;1.50;;;;;;;2.72;64.90;97934.71;105267;1257;62643;-24
2023/02/19 11:08:56;;;;;;;3.10;1.10;;;;;;;2.72;65.27;97929.24;105257;1261;74765;-24
2023/02/19 11:11:33;;;;;;;2.20;1.40;;;;;;;2.62;65.38;97929.02;105434;1257;74493;-25
2023/02/19 11:14:14;;;;;;;1.80;1.30;;;;;;;2.79;66.04;97924.29;105653;1268;74720;-25
2023/02/19 11:16:47;;;;;;;11.40;1.30;;;;;;;2.90;65.85;97931.98;105340;1254;61505;-25
2023/02/19 11:19:24;;;;;;;3.30;1.40;;;;;;;3.03;66.20;97930.61;105643;1254;62034;-25
2023/02/19 11:21:52;;;;;;;3.00;1.20;;;;;;;3.16;66.99;97934.55;105692;1252;74828;-25
2023/02/19 11:24:32;;;;;;;3.20;1.30;;;;;;;3.17;65.48;97911.31;105581;1260;75937;-25
2023/02/19 11:27:03;;;;;;;3.70;1.70;;;;;;;3.36;65.04;97915.49;105581;1254;74036;-25
2023/02/19 11:29:34;;;;;;;2.10;1.00;;;;;;;3.65;64.16;97910.70;105459;1267;61956;-24
2023/02/19 11:32:19;;;;;;;2.40;1.90;;;;;;;3.51;63.61;97910.33;105604;1260;61112;-25
2023/02/19 11:34:48;;;;;;;3.20;1.20;;;;;;;3.30;64.17;97909.05;105768;1256;74383;-25
2023/02/19 11:37:19;;;;;;;1.70;1.20;;;;;;;3.26;64.87;97911.68;105530;1254;76678;-24
2023/02/19 11:39:48;;;;;;;2.40;1.40;;;;;;;3.24;65.82;97906.52;105406;1260;73163;-25
2023/02/19 11:42:38;;;;;;;5.10;1.60;;;;;;;3.26;66.25;97903.47;105497;1254;61135;-26
2023/02/19 11:45:40;;;;;;;2.80;1.90;;;;;;;3.05;65.66;97886.59;105503;1260;61846;-27
2023/02/19 11:48:25;;;;;;;2.70;1.30;;;;;;;2.79;66.12;97886.82;105624;1261;75681;-25
2023/02/19 11:51:11;;;;;;;5.20;1.90;;;;;;;2.79;65.75;97878.05;105676;1258;74717;-24
2023/02/19 11:53:51;;;;;;;3.00;1.50;;;;;;;2.74;66.53;97886.05;105704;1258;74240;-25
2023/02/19 11:56:22;;;;;;;1.90;1.50;;;;;;;2.89;67.08;97883.34;105694;1257;61161;-25
2023/02/19 11:59:04;;;;;;;2.40;1.90;;;;;;;3.02;65.32;97864.69;105704;1258;61849;-25
2023/02/19 12:01:54;;;;;;;2.40;1.80;;;;;;;3.06;66.58;97876.74;105618;1259;74898;-25
2023/02/19 12:04:57;;;;;;;1.80;1.50;;;;;;;3.21;65.61;97867.43;105849;1254;76080;-25
2023/02/19 12:08:20;;;;;;;4.20;2.20;;;;;;;2.96;64.65;97861.98;105695;1257;74140;-24
2023/02/19 12:11:06;;;;;;;2.30;1.50;;;;;;;2.88;65.98;97864.59;105236;1259;61659;-25
2023/02/19 12:13:38;;;;;;;2.70;1.80;;;;;;;2.90;65.08;97855.06;105090;1264;62157;-24
2023/02/19 12:16:47;;;;;;;2.80;1.60;;;;;;;2.88;66.20;97871.95;105065;1262;75355;-25
2023/02/19 12:19:18;;;;;;;4.10;2.00;;;;;;;2.84;66.77;97870.36;104893;1266;75876;-25
2023/02/19 12:22:08;;;;;;;3.60;1.90;;;;;;;2.87;66.96;97859.73;105065;1260;74208;-25
2023/02/19 12:24:46;;;;;;;7.80;1.60;;;;;;;2.76;66.36;97856.98;105460;1259;61111;-25
2023/02/19 12:27:26;;;;;;;2.40;1.80;;;;;;;2.67;66.36;97851.80;105082;1264;61380;-25
2023/02/19 12:30:20;;;;;;;3.70;1.90;;;;;;;2.65;66.83;97835.10;105165;1260;76019;-25
2023/02/19 12:33:13;;;;;;;4.70;2.30;;;;;;;2.61;67.42;97853.05;105077;1260;75823;-25
2023/02/19 12:35:50;;;;;;;4.50;1.60;;;;;;;2.66;67.56;97850.67;105155;1260;74516;-24
2023/02/19 12:38:27;;;;;;;4.20;2.10;;;;;;;3.23;66.30;97852.08;105219;1263;61314;-24
2023/02/19 12:41:14;;;;;;;2.80;1.80;;;;;;;3.36;65.06;97832.98;105489;1258;61824;-24